Time;durP1;ratioP1;P1;durP2;ratioP2;P2;SDS_P1;SDS_P2;PMS_P1;PMS_P2;Temp;Humidity;BMP_temperature;BMP_pressure;BME280_temperature;BME280_humidity;BME280_pressure;Samples;Min_cycle;Max_cycle;Signal;HPM_P1;HPM_P2
2024/02/29 00:03:24;;;;;;;18.13;16.23;;;10.40;39.70;;;;;;10481248;28;20224;-77
2024/02/29 00:08:27;;;;;;;16.93;14.97;;;10.40;39.60;;;;;;10483218;28;20247;-77
2024/02/29 00:13:32;;;;;;;18.43;15.33;;;10.40;39.30;;;;;;10478386;28;20234;-77
2024/02/29 00:18:35;;;;;;;17.43;13.93;;;10.40;39.60;;;;;;10483135;28;20231;-76
2024/02/29 00:23:39;;;;;;;18.60;16.43;;;10.30;39.40;;;;;;10472083;28;20229;-78
2024/02/29 00:28:44;;;;;;;18.73;15.93;;;10.40;39.70;;;;;;10476872;28;20235;-78
2024/02/29 00:33:47;;;;;;;17.30;15.40;;;10.30;39.50;;;;;;10474717;28;20313;-77
2024/02/29 00:38:51;;;;;;;18.10;15.83;;;10.20;39.50;;;;;;10479794;28;20240;-77
2024/02/29 00:44:10;;;;;;;16.33;14.23;;;10.00;39.60;;;;;;10475661;28;20307;-77
2024/02/29 00:49:14;;;;;;;16.50;14.70;;;9.90;40.80;;;;;;10476539;28;20258;-78
2024/02/29 00:54:18;;;;;;;18.03;14.70;;;9.80;40.70;;;;;;10477377;28;20224;-77
2024/02/29 00:59:23;;;;;;;17.20;15.07;;;9.80;40.70;;;;;;10471813;28;20734;-77
2024/02/29 01:04:26;;;;;;;17.07;14.77;;;9.80;40.70;;;;;;10481026;28;20300;-77
2024/02/29 01:09:29;;;;;;;18.43;16.43;;;9.70;40.60;;;;;;10475145;28;20605;-77
2024/02/29 01:14:34;;;;;;;18.20;15.50;;;9.60;40.50;;;;;;10481326;28;20228;-77
2024/02/29 01:19:37;;;;;;;17.47;15.03;;;9.60;40.50;;;;;;10472712;28;20318;-77
2024/02/29 01:24:41;;;;;;;16.83;13.70;;;9.50;40.50;;;;;;10475102;28;20228;-76
2024/02/29 01:29:45;;;;;;;14.50;12.53;;;9.40;40.50;;;;;;10474433;28;20228;-77
2024/02/29 01:34:48;;;;;;;15.13;13.20;;;9.40;40.90;;;;;;10481719;28;20258;-78
2024/02/29 01:39:52;;;;;;;15.90;13.70;;;9.40;40.60;;;;;;10476638;28;20232;-77
2024/02/29 01:44:57;;;;;;;14.70;13.10;;;9.50;40.50;;;;;;10474087;28;20273;-77
2024/02/29 01:50:03;;;;;;;17.57;14.57;;;9.50;40.50;;;;;;10478626;28;20234;-77
2024/02/29 01:55:07;;;;;;;16.17;13.43;;;9.60;40.50;;;;;;10473658;28;20251;-77
2024/02/29 02:00:13;;;;;;;18.00;14.63;;;9.50;40.50;;;;;;10473263;28;20239;-77
2024/02/29 02:05:17;;;;;;;16.90;14.23;;;9.40;40.40;;;;;;10466740;28;20677;-77
2024/02/29 02:10:21;;;;;;;16.00;14.27;;;9.30;40.30;;;;;;10480184;28;20220;-77
2024/02/29 02:15:26;;;;;;;19.00;15.73;;;9.30;40.30;;;;;;10475154;28;20251;-77
2024/02/29 02:20:30;;;;;;;17.50;15.43;;;9.30;40.30;;;;;;10479000;28;20224;-77
2024/02/29 02:25:33;;;;;;;17.00;14.93;;;9.20;40.20;;;;;;10479091;28;20227;-77
2024/02/29 02:30:36;;;;;;;18.00;14.80;;;9.10;40.10;;;;;;10475765;28;20639;-76
2024/02/29 02:35:42;;;;;;;17.63;14.60;;;8.90;40.00;;;;;;10477194;28;20625;-79
2024/02/29 02:40:45;;;;;;;18.63;15.43;;;8.80;40.10;;;;;;10474907;28;20290;-76
2024/02/29 02:45:48;;;;;;;18.50;15.47;;;8.80;39.90;;;;;;10474670;28;20311;-77
2024/02/29 02:50:54;;;;;;;16.50;14.47;;;8.70;39.80;;;;;;10477559;28;20336;-78
2024/02/29 02:55:57;;;;;;;18.13;15.03;;;8.60;39.70;;;;;;10478353;28;20699;-77
2024/02/29 03:01:00;;;;;;;15.93;14.23;;;8.50;39.70;;;;;;10470844;28;20233;-76
2024/02/29 03:06:05;;;;;;;16.00;13.87;;;8.30;39.50;;;;;;10470106;28;20728;-77
2024/02/29 03:11:09;;;;;;;16.77;13.33;;;8.10;39.90;;;;;;10476887;28;20319;-76
2024/02/29 03:16:12;;;;;;;16.93;13.93;;;8.00;40.10;;;;;;10478656;28;20236;-76
2024/02/29 03:21:18;;;;;;;16.73;14.13;;;8.10;40.00;;;;;;10471968;28;20224;-77
2024/02/29 03:26:21;;;;;;;19.00;14.63;;;8.10;39.50;;;;;;10483406;28;20227;-78
2024/02/29 03:31:25;;;;;;;15.57;13.63;;;8.00;39.40;;;;;;10484032;28;20596;-76
2024/02/29 03:36:29;;;;;;;15.47;13.73;;;8.00;39.70;;;;;;10482893;28;20228;-77
2024/02/29 03:41:32;;;;;;;16.33;13.70;;;8.00;39.70;;;;;;10481913;28;20836;-77
2024/02/29 03:46:36;;;;;;;17.53;14.33;;;8.00;39.60;;;;;;10478990;28;20315;-77
2024/02/29 03:51:41;;;;;;;17.23;13.30;;;8.00;39.30;;;;;;10486422;28;20229;-77
2024/02/29 03:56:44;;;;;;;15.07;13.17;;;8.00;39.30;;;;;;10486125;28;20231;-77
2024/02/29 04:01:48;;;;;;;13.73;12.00;;;7.90;39.90;;;;;;10482547;28;20233;-76
2024/02/29 04:06:53;;;;;;;16.37;13.87;;;7.90;39.20;;;;;;10478901;28;20307;-77
2024/02/29 04:11:57;;;;;;;15.43;13.20;;;7.90;39.20;;;;;;10488160;28;20239;-78
2024/02/29 04:17:00;;;;;;;13.20;10.97;;;7.90;39.20;;;;;;10489907;28;20664;-77
2024/02/29 04:22:04;;;;;;;14.73;12.93;;;7.90;39.20;;;;;;10487239;28;20258;-77
2024/02/29 04:27:09;;;;;;;16.43;13.63;;;7.90;39.20;;;;;;10481050;28;20240;-77
2024/02/29 04:32:12;;;;;;;16.30;13.40;;;7.90;39.20;;;;;;10482197;28;21125;-76
2024/02/29 04:37:17;;;;;;;14.27;12.53;;;7.80;39.10;;;;;;10480646;28;20863;-77
2024/02/29 04:42:21;;;;;;;13.37;11.60;;;7.80;39.10;;;;;;10483006;28;20225;-77
2024/02/29 04:47:30;;;;;;;11.70;10.50;;;7.80;39.80;;;;;;10482754;28;20224;-77
2024/02/29 04:52:41;;;;;;;14.03;11.70;;;7.70;39.00;;;;;;10486207;28;20315;-77
2024/02/29 04:57:45;;;;;;;14.87;13.27;;;7.60;38.90;;;;;;10481037;28;20866;-77
2024/02/29 05:02:48;;;;;;;15.77;13.63;;;7.60;38.90;;;;;;10476436;28;20714;-77
2024/02/29 05:07:53;;;;;;;14.57;12.33;;;7.60;38.90;;;;;;10481712;28;20252;-77
2024/02/29 05:12:56;;;;;;;14.53;13.00;;;7.60;38.90;;;;;;10469071;28;20264;-78
2024/02/29 05:17:59;;;;;;;14.50;12.93;;;7.50;38.80;;;;;;10487783;28;20228;-77
2024/02/29 05:23:05;;;;;;;17.40;14.13;;;7.40;38.80;;;;;;10482264;28;20256;-77
2024/02/29 05:28:18;;;;;;;15.23;12.63;;;7.30;38.70;;;;;;10485823;28;20577;-76
2024/02/29 05:33:21;;;;;;;16.50;14.70;;;7.20;38.60;;;;;;10487770;28;20227;-77
2024/02/29 05:38:25;;;;;;;15.03;12.80;;;7.20;38.60;;;;;;10477074;28;20255;-76
2024/02/29 05:43:29;;;;;;;17.07;14.83;;;7.10;38.80;;;;;;10480782;28;20232;-76
2024/02/29 05:48:37;;;;;;;17.73;15.03;;;7.10;39.00;;;;;;10470183;28;20228;-77
2024/02/29 05:53:42;;;;;;;13.73;12.23;;;7.10;39.20;;;;;;10471190;28;20603;-77
2024/02/29 05:58:45;;;;;;;14.77;13.13;;;7.10;39.10;;;;;;10480632;28;20225;-77
2024/02/29 06:03:48;;;;;;;16.27;14.40;;;7.10;39.00;;;;;;10478406;28;20243;-77
2024/02/29 06:08:54;;;;;;;17.47;13.30;;;7.10;39.00;;;;;;10475216;28;20282;-78
2024/02/29 06:13:57;;;;;;;19.33;16.30;;;7.10;38.90;;;;;;10481806;28;20217;-77
2024/02/29 06:19:00;;;;;;;18.07;14.60;;;7.10;40.00;;;;;;10467361;28;20984;-78
2024/02/29 06:24:05;;;;;;;17.53;15.47;;;7.20;39.90;;;;;;10476378;28;20224;-78
2024/02/29 06:29:10;;;;;;;19.77;16.87;;;7.20;39.60;;;;;;10487362;28;20292;-79
2024/02/29 06:34:14;;;;;;;17.20;15.23;;;7.20;39.40;;;;;;10490081;28;20233;-79
2024/02/29 06:39:19;;;;;;;22.23;16.93;;;7.20;39.40;;;;;;10483565;28;20254;-78
2024/02/29 06:44:25;;;;;;;26.03;18.30;;;7.20;39.30;;;;;;10486895;28;20302;-78
2024/02/29 06:49:28;;;;;;;16.57;14.30;;;7.20;39.50;;;;;;10496455;28;20283;-78
2024/02/29 06:54:33;;;;;;;18.27;14.83;;;7.10;39.40;;;;;;10482535;28;20240;-77
2024/02/29 06:59:36;;;;;;;19.53;16.17;;;7.10;39.60;;;;;;10485688;28;20236;-79
2024/02/29 07:04:39;;;;;;;17.67;15.03;;;7.10;39.70;;;;;;10493500;28;20307;-79
2024/02/29 07:09:44;;;;;;;21.83;17.00;;;7.20;40.00;;;;;;10497561;28;20231;-79
2024/02/29 07:14:48;;;;;;;21.80;17.37;;;7.20;40.10;;;;;;10495332;28;20534;-78
2024/02/29 07:19:52;;;;;;;19.63;16.63;;;7.30;40.10;;;;;;10499680;28;20771;-78
2024/02/29 07:24:56;;;;;;;19.27;17.27;;;7.30;40.30;;;;;;10528134;28;20749;-77
2024/02/29 07:30:00;;;;;;;19.03;16.07;;;7.30;40.60;;;;;;10498077;28;20248;-77
2024/02/29 07:35:03;;;;;;;21.13;18.67;;;7.40;40.60;;;;;;10497692;28;20711;-77
2024/02/29 07:40:08;;;;;;;19.77;17.03;;;7.50;40.60;;;;;;10502018;28;20616;-77
2024/02/29 07:45:12;;;;;;;27.37;22.67;;;7.50;40.60;;;;;;10500104;28;20650;-78
2024/02/29 07:50:17;;;;;;;23.30;19.83;;;7.50;40.60;;;;;;10498076;28;20710;-78
2024/02/29 07:55:22;;;;;;;24.50;20.17;;;7.50;40.60;;;;;;10496331;28;20240;-78
2024/02/29 08:00:25;;;;;;;21.17;18.30;;;7.60;41.00;;;;;;10495376;28;20654;-82
2024/02/29 08:05:29;;;;;;;23.63;19.73;;;7.60;40.90;;;;;;10477197;28;21204;-82
2024/02/29 08:10:33;;;;;;;25.33;20.47;;;7.70;40.90;;;;;;10488766;28;20714;-78
2024/02/29 08:15:36;;;;;;;22.97;17.80;;;7.70;41.10;;;;;;10505173;28;20256;-77
2024/02/29 08:20:39;;;;;;;22.20;19.67;;;7.80;41.00;;;;;;10496504;28;20258;-77
2024/02/29 08:25:44;;;;;;;26.40;22.77;;;7.80;41.10;;;;;;10481308;28;20298;-78
2024/02/29 08:30:47;;;;;;;32.07;28.53;;;7.80;41.30;;;;;;10477226;28;20284;-77
2024/02/29 08:35:51;;;;;;;23.80;20.00;;;7.90;41.30;;;;;;10482926;28;20232;-79
2024/02/29 08:40:55;;;;;;;22.57;18.97;;;8.00;41.30;;;;;;10480534;28;20728;-80
2024/02/29 08:45:58;;;;;;;26.13;21.57;;;8.00;41.50;;;;;;10491607;28;20248;-77
2024/02/29 08:51:02;;;;;;;22.83;19.13;;;8.10;41.40;;;;;;10481654;28;20674;-80
2024/02/29 08:56:07;;;;;;;21.93;17.57;;;8.10;41.40;;;;;;10489421;28;20311;-76
2024/02/29 09:01:10;;;;;;;24.43;19.60;;;8.20;41.70;;;;;;10488504;28;20235;-78
2024/02/29 09:06:14;;;;;;;22.17;18.33;;;8.20;41.60;;;;;;10498332;28;20800;-79
2024/02/29 09:11:19;;;;;;;21.60;17.90;;;8.30;41.80;;;;;;10486917;28;20621;-78
2024/02/29 09:16:23;;;;;;;21.97;19.13;;;8.30;42.00;;;;;;10489828;28;20622;-78
2024/02/29 09:21:26;;;;;;;21.97;18.43;;;8.40;41.90;;;;;;10483384;28;20771;-79
2024/02/29 09:26:31;;;;;;;24.03;19.23;;;8.40;41.90;;;;;;10482488;28;20654;-78
2024/02/29 09:31:35;;;;;;;25.03;20.57;;;8.50;42.40;;;;;;10487727;28;20311;-77
2024/02/29 09:36:39;;;;;;;24.77;20.80;;;8.50;42.20;;;;;;10486202;28;20224;-78
2024/02/29 09:41:43;;;;;;;22.60;19.13;;;8.60;42.30;;;;;;10484251;28;20243;-78
2024/02/29 09:47:08;;;;;;;23.33;19.13;;;8.70;42.70;;;;;;10494215;28;20227;-79
2024/02/29 09:52:13;;;;;;;25.87;21.63;;;8.80;42.60;;;;;;10492338;28;20307;-79
2024/02/29 09:57:18;;;;;;;27.80;21.93;;;8.90;43.00;;;;;;10490170;28;20224;-78
2024/02/29 10:02:23;;;;;;;26.67;22.10;;;9.00;43.10;;;;;;10484188;28;20656;-78
2024/02/29 10:07:26;;;;;;;23.90;20.70;;;9.10;42.90;;;;;;10496851;28;20310;-78
2024/02/29 10:12:31;;;;;;;24.23;20.30;;;9.20;42.90;;;;;;10501321;28;20232;-78
2024/02/29 10:17:34;;;;;;;24.57;21.03;;;9.30;43.40;;;;;;10496228;28;20227;-79
2024/02/29 10:22:38;;;;;;;26.10;20.80;;;9.40;43.10;;;;;;10497539;28;20232;-78
2024/02/29 10:27:43;;;;;;;26.50;21.60;;;9.50;43.30;;;;;;10497684;28;20243;-78
2024/02/29 10:32:47;;;;;;;26.80;21.80;;;9.60;43.50;;;;;;10482801;28;20224;-78
2024/02/29 10:37:52;;;;;;;25.20;21.30;;;9.70;43.40;;;;;;10495641;28;20240;-77
2024/02/29 10:43:01;;;;;;;25.03;21.33;;;9.90;43.50;;;;;;10494404;28;20251;-77
2024/02/29 10:48:13;;;;;;;25.27;22.00;;;10.00;42.70;;;;;;10489152;28;20216;-78
2024/02/29 10:53:29;;;;;;;24.87;20.93;;;10.10;42.70;;;;;;10491496;28;20315;-78
2024/02/29 10:58:37;;;;;;;25.27;21.63;;;10.20;42.70;;;;;;10502511;28;20266;-78
2024/02/29 11:03:42;;;;;;;25.33;21.33;;;10.30;42.50;;;;;;10501711;28;20817;-79
2024/02/29 11:08:45;;;;;;;21.57;18.37;;;10.50;42.30;;;;;;10486666;28;20723;-79
2024/02/29 11:13:50;;;;;;;22.00;18.30;;;10.50;42.00;;;;;;10496430;28;20316;-79
2024/02/29 11:19:01;;;;;;;23.87;18.53;;;10.70;41.50;;;;;;10496506;28;20235;-77
2024/02/29 11:24:06;;;;;;;20.53;17.47;;;10.70;41.50;;;;;;10491994;28;20232;-78
2024/02/29 11:29:15;;;;;;;18.80;16.83;;;10.80;41.60;;;;;;10504961;28;20224;-78
2024/02/29 11:34:20;;;;;;;21.57;19.00;;;10.90;41.40;;;;;;10502594;28;20231;-79
2024/02/29 11:39:24;;;;;;;22.57;17.77;;;10.90;41.40;;;;;;10499509;28;20228;-79
2024/02/29 11:44:29;;;;;;;18.97;15.17;;;11.00;40.90;;;;;;10489077;28;20233;-78
2024/02/29 11:49:33;;;;;;;22.67;18.30;;;11.00;41.00;;;;;;10495879;28;20247;-79
2024/02/29 11:54:37;;;;;;;20.30;16.60;;;11.10;41.10;;;;;;10506385;28;20656;-78
2024/02/29 11:59:42;;;;;;;21.33;17.80;;;11.20;41.00;;;;;;10497201;28;20285;-79
2024/02/29 12:04:45;;;;;;;19.13;16.40;;;11.20;41.00;;;;;;10500419;28;20342;-79
2024/02/29 12:09:49;;;;;;;19.10;16.10;;;11.20;41.00;;;;;;10493764;28;20305;-79
2024/02/29 12:14:54;;;;;;;21.53;17.37;;;11.30;41.10;;;;;;10497369;28;20232;-79
2024/02/29 12:19:57;;;;;;;18.03;15.23;;;11.30;41.10;;;;;;10490920;28;20267;-79
2024/02/29 12:25:11;;;;;;;19.00;16.00;;;11.30;41.10;;;;;;10491359;28;20307;-78
2024/02/29 12:30:16;;;;;;;21.60;17.53;;;11.20;41.00;;;;;;10475130;28;20224;-78
2024/02/29 12:35:19;;;;;;;19.17;16.23;;;11.20;41.00;;;;;;10482025;28;20220;-77
2024/02/29 12:40:24;;;;;;;20.70;17.50;;;11.20;41.00;;;;;;10475240;28;20327;-78
2024/02/29 12:45:29;;;;;;;22.47;17.73;;;11.20;41.00;;;;;;10480840;28;20310;-77
2024/02/29 12:50:32;;;;;;;18.70;16.27;;;11.20;41.00;;;;;;10480621;28;20224;-77
2024/02/29 12:55:35;;;;;;;17.70;15.73;;;11.20;41.00;;;;;;10478875;28;20725;-77
2024/02/29 13:00:40;;;;;;;17.87;15.77;;;11.20;41.00;;;;;;10480493;28;20782;-77
2024/02/29 13:05:44;;;;;;;21.67;16.97;;;11.20;41.00;;;;;;10476178;28;20266;-78
2024/02/29 13:10:47;;;;;;;18.63;15.93;;;11.30;41.10;;;;;;10477933;28;20315;-78
2024/02/29 13:15:52;;;;;;;19.40;15.73;;;11.30;41.10;;;;;;10482393;28;20726;-77
2024/02/29 13:20:58;;;;;;;20.53;15.57;;;11.30;41.10;;;;;;10486818;28;20370;-78
2024/02/29 13:26:04;;;;;;;19.97;15.73;;;11.40;41.20;;;;;;10477105;28;20234;-79
2024/02/29 13:31:09;;;;;;;19.67;15.23;;;11.40;41.20;;;;;;10479912;28;20255;-77
2024/02/29 13:36:13;;;;;;;19.13;14.93;;;11.50;41.30;;;;;;10481601;28;20275;-77
2024/02/29 13:41:16;;;;;;;21.23;15.43;;;11.50;41.20;;;;;;10479203;28;20229;-78
2024/02/29 13:46:21;;;;;;;18.60;14.80;;;11.60;41.30;;;;;;10483693;28;20722;-76
2024/02/29 13:51:24;;;;;;;18.10;13.67;;;11.70;40.80;;;;;;10481179;28;20228;-77
2024/02/29 13:56:27;;;;;;;20.50;15.70;;;11.70;41.10;;;;;;10476141;28;20695;-78
2024/02/29 14:01:32;;;;;;;19.27;15.93;;;11.80;41.10;;;;;;10471051;28;20221;-77
2024/02/29 14:06:35;;;;;;;18.30;14.03;;;11.90;40.70;;;;;;10472585;28;20257;-77
2024/02/29 14:11:39;;;;;;;18.63;14.13;;;11.90;40.70;;;;;;10476770;28;20232;-77
2024/02/29 14:16:44;;;;;;;19.30;14.63;;;12.00;40.50;;;;;;10471118;28;20304;-77
2024/02/29 14:21:47;;;;;;;16.27;13.13;;;12.00;40.40;;;;;;10474086;28;20881;-78
2024/02/29 14:26:52;;;;;;;17.77;13.43;;;12.10;40.50;;;;;;10482371;28;20232;-78
2024/02/29 14:31:56;;;;;;;18.10;13.70;;;12.10;40.30;;;;;;10474233;28;20252;-78
2024/02/29 14:37:00;;;;;;;19.40;14.70;;;12.20;40.20;;;;;;10485249;28;20236;-79
2024/02/29 14:42:04;;;;;;;18.80;13.37;;;12.30;40.20;;;;;;10482047;28;20611;-78
2024/02/29 14:47:08;;;;;;;18.53;13.77;;;12.30;40.80;;;;;;10479868;28;20256;-78
2024/02/29 14:52:12;;;;;;;20.43;14.03;;;12.40;40.20;;;;;;10472898;28;20275;-77
2024/02/29 14:57:15;;;;;;;21.53;15.70;;;12.40;40.20;;;;;;10473309;28;20709;-77
2024/02/29 15:02:20;;;;;;;17.80;14.87;;;12.40;39.90;;;;;;10478981;28;20236;-77
2024/02/29 15:07:23;;;;;;;21.53;16.13;;;12.40;39.90;;;;;;10486646;28;20259;-77
2024/02/29 15:12:27;;;;;;;21.63;17.33;;;12.50;39.90;;;;;;10471757;28;20230;-78
2024/02/29 15:17:31;;;;;;;24.53;17.80;;;12.50;39.90;;;;;;10477196;28;20279;-77
2024/02/29 15:22:36;;;;;;;21.50;17.73;;;12.40;39.60;;;;;;10481477;28;20224;-77
2024/02/29 15:27:39;;;;;;;21.17;17.47;;;12.30;39.60;;;;;;10482077;28;20221;-76
2024/02/29 15:32:44;;;;;;;20.97;17.13;;;12.20;40.50;;;;;;10480088;28;20277;-77
2024/02/29 15:37:48;;;;;;;21.07;18.00;;;12.20;39.80;;;;;;10492207;28;20317;-77
2024/02/29 15:42:51;;;;;;;23.57;19.07;;;12.20;39.80;;;;;;10491902;28;20324;-78
2024/02/29 15:47:56;;;;;;;22.23;18.00;;;12.20;39.90;;;;;;10486048;28;20216;-77
2024/02/29 15:52:59;;;;;;;29.93;22.13;;;12.20;40.00;;;;;;10490293;28;20240;-77
2024/02/29 15:58:03;;;;;;;23.90;20.80;;;12.20;39.80;;;;;;10485625;28;20255;-77
2024/02/29 16:03:08;;;;;;;29.90;23.53;;;12.20;40.20;;;;;;10483276;28;20240;-78
2024/02/29 16:08:11;;;;;;;28.60;23.10;;;12.20;40.00;;;;;;10479656;28;20307;-77
2024/02/29 16:13:15;;;;;;;29.60;22.83;;;12.20;39.80;;;;;;10483612;28;20232;-75
2024/02/29 16:18:19;;;;;;;27.57;22.77;;;12.20;39.70;;;;;;10487522;28;20282;-77
2024/02/29 16:23:23;;;;;;;27.03;20.93;;;12.10;39.60;;;;;;10489727;28;20251;-77
2024/02/29 16:28:27;;;;;;;29.07;22.57;;;12.00;39.80;;;;;;10487511;28;20303;-77
2024/02/29 16:33:32;;;;;;;28.80;22.03;;;11.90;39.90;;;;;;10483713;28;20278;-77
2024/02/29 16:38:38;;;;;;;25.33;20.90;;;12.00;40.00;;;;;;10479666;28;20226;-77
2024/02/29 16:43:41;;;;;;;28.83;22.90;;;11.90;40.00;;;;;;10470733;28;20236;-76
2024/02/29 16:48:46;;;;;;;28.43;21.80;;;11.90;40.10;;;;;;10476516;28;20228;-77
2024/02/29 16:53:54;;;;;;;26.63;22.03;;;11.90;40.20;;;;;;10483337;28;20278;-77
2024/02/29 16:58:57;;;;;;;23.60;20.90;;;11.90;40.10;;;;;;10489458;28;20741;-77
2024/02/29 17:04:01;;;;;;;26.40;21.70;;;12.00;40.10;;;;;;10484034;28;20260;-77
2024/02/29 17:09:06;;;;;;;26.63;21.50;;;12.00;39.90;;;;;;10481387;28;20284;-77
2024/02/29 17:14:09;;;;;;;27.00;20.77;;;12.10;39.90;;;;;;10486889;28;20232;-78
2024/02/29 17:19:14;;;;;;;27.90;21.53;;;12.00;40.10;;;;;;10480191;28;20256;-77
2024/02/29 17:24:20;;;;;;;27.10;22.43;;;12.00;39.90;;;;;;10478919;28;20225;-78
2024/02/29 17:29:23;;;;;;;26.37;20.47;;;12.00;39.90;;;;;;10479075;28;20258;-76
2024/02/29 17:34:27;;;;;;;31.90;23.33;;;12.00;39.80;;;;;;10478504;28;20244;-76
2024/02/29 17:39:31;;;;;;;28.33;21.63;;;12.00;40.00;;;;;;10481867;28;20233;-76
2024/02/29 17:44:34;;;;;;;27.40;21.17;;;12.00;40.00;;;;;;10476771;28;20234;-76
2024/02/29 17:49:38;;;;;;;30.30;23.70;;;12.00;40.10;;;;;;10471736;28;20239;-76
2024/02/29 17:54:42;;;;;;;26.00;21.50;;;12.10;40.10;;;;;;10480920;28;20753;-76
2024/02/29 17:59:45;;;;;;;30.53;23.67;;;12.10;40.10;;;;;;10478079;28;20229;-76
2024/02/29 18:04:51;;;;;;;31.83;23.60;;;12.10;39.90;;;;;;10469064;28;20242;-76
2024/02/29 18:09:58;;;;;;;27.73;20.60;;;12.20;40.00;;;;;;10479789;28;20238;-76
2024/02/29 18:15:02;;;;;;;26.10;19.87;;;12.20;39.80;;;;;;10470781;28;20259;-75
2024/02/29 18:20:08;;;;;;;24.57;19.93;;;12.20;39.80;;;;;;10481140;28;20224;-76
2024/02/29 18:25:11;;;;;;;22.93;20.10;;;12.20;39.70;;;;;;10478839;28;20310;-76
2024/02/29 18:30:16;;;;;;;27.60;20.77;;;12.20;39.70;;;;;;10481071;28;20273;-76
2024/02/29 18:35:20;;;;;;;24.80;19.73;;;12.20;39.60;;;;;;10486149;28;20220;-76
2024/02/29 18:40:23;;;;;;;22.53;19.07;;;12.20;39.50;;;;;;10483606;28;20597;-76
2024/02/29 18:45:27;;;;;;;24.63;20.13;;;12.20;39.60;;;;;;10482520;28;20232;-76
2024/02/29 18:50:31;;;;;;;20.83;17.43;;;12.10;39.50;;;;;;10479399;28;20255;-75
2024/02/29 18:55:34;;;;;;;24.53;19.10;;;12.10;39.50;;;;;;10500602;28;20248;-75
2024/02/29 19:00:38;;;;;;;23.97;18.47;;;12.10;39.40;;;;;;10485619;28;20232;-76
2024/02/29 19:05:42;;;;;;;20.07;17.33;;;12.10;39.30;;;;;;10483758;28;20706;-76
2024/02/29 19:10:46;;;;;;;21.07;17.40;;;12.00;39.00;;;;;;10479933;28;20224;-76
2024/02/29 19:15:49;;;;;;;19.40;15.03;;;11.90;38.90;;;;;;10486535;28;20602;-77
2024/02/29 19:20:56;;;;;;;17.67;15.33;;;11.90;38.90;;;;;;10492505;28;20315;-76
2024/02/29 19:26:00;;;;;;;18.20;15.27;;;11.80;38.90;;;;;;10496925;28;20226;-75
2024/02/29 19:31:04;;;;;;;18.77;16.37;;;11.70;38.80;;;;;;10503288;28;20247;-75
2024/02/29 19:36:10;;;;;;;19.33;17.13;;;11.70;38.90;;;;;;10492963;28;20224;-75
2024/02/29 19:41:14;;;;;;;20.33;17.00;;;11.60;38.60;;;;;;10479424;28;20250;-76
2024/02/29 19:46:18;;;;;;;20.60;17.10;;;11.50;38.40;;;;;;10484056;28;20224;-76
2024/02/29 19:51:23;;;;;;;18.20;15.50;;;11.30;38.30;;;;;;10481099;28;20235;-76
2024/02/29 19:56:26;;;;;;;21.13;16.37;;;11.20;38.40;;;;;;10484425;28;20235;-76
2024/02/29 20:01:29;;;;;;;19.87;15.47;;;11.20;38.50;;;;;;10488586;28;20314;-76
2024/02/29 20:06:34;;;;;;;18.37;15.77;;;11.10;38.50;;;;;;10491378;28;20279;-76
2024/02/29 20:11:37;;;;;;;21.93;16.83;;;11.00;38.40;;;;;;10477784;28;20232;-77
2024/02/29 20:16:40;;;;;;;17.77;15.33;;;10.90;38.40;;;;;;10479388;28;20738;-77
2024/02/29 20:21:47;;;;;;;18.87;15.63;;;10.80;38.40;;;;;;10478114;28;20307;-74
2024/02/29 20:26:50;;;;;;;22.60;17.73;;;10.70;38.30;;;;;;10480792;28;20765;-75
2024/02/29 20:31:53;;;;;;;20.20;18.00;;;10.70;38.50;;;;;;10480598;28;20241;-77
2024/02/29 20:36:59;;;;;;;18.07;15.60;;;10.60;38.40;;;;;;10482766;28;20238;-74
2024/02/29 20:42:04;;;;;;;23.83;19.50;;;10.50;38.30;;;;;;10482458;28;20224;-77
2024/02/29 20:47:08;;;;;;;20.97;18.00;;;10.50;38.20;;;;;;10480318;28;20228;-77
2024/02/29 20:52:13;;;;;;;19.30;16.43;;;10.40;38.40;;;;;;10482513;28;20224;-75
2024/02/29 20:57:20;;;;;;;25.20;21.43;;;10.30;38.30;;;;;;10477491;28;20224;-74
2024/02/29 21:02:23;;;;;;;28.20;23.40;;;10.20;38.40;;;;;;10486104;28;20228;-77
2024/02/29 21:07:27;;;;;;;24.50;20.93;;;10.20;38.30;;;;;;10478971;28;20232;-77
2024/02/29 21:12:34;;;;;;;25.40;21.63;;;10.10;38.10;;;;;;10478452;28;20278;-77
2024/02/29 21:17:38;;;;;;;24.23;20.70;;;10.00;38.20;;;;;;10478628;28;20243;-77
2024/02/29 21:22:43;;;;;;;17.60;15.73;;;9.90;39.30;;;;;;10478892;28;20245;-76
2024/02/29 21:27:47;;;;;;;20.37;17.37;;;9.90;39.40;;;;;;10477133;28;20229;-76
2024/02/29 21:32:50;;;;;;;26.27;19.77;;;9.80;39.30;;;;;;10479292;28;20710;-77
2024/02/29 21:37:55;;;;;;;21.10;18.77;;;9.80;39.30;;;;;;10480504;28;20224;-77
2024/02/29 21:42:59;;;;;;;17.13;14.90;;;9.70;39.20;;;;;;10483072;28;20242;-77
2024/02/29 21:48:02;;;;;;;24.47;21.23;;;9.70;39.30;;;;;;10490626;28;20286;-77
2024/02/29 21:53:07;;;;;;;25.70;20.47;;;9.60;39.20;;;;;;10486653;28;20242;-75
2024/02/29 21:58:10;;;;;;;21.07;18.50;;;9.60;39.30;;;;;;10477578;28;20622;-74
2024/02/29 22:03:13;;;;;;;22.03;18.10;;;9.60;39.20;;;;;;10487184;28;20274;-75
2024/02/29 22:08:18;;;;;;;19.63;16.70;;;9.50;39.10;;;;;;10487459;28;20220;-77
2024/02/29 22:13:21;;;;;;;21.60;19.30;;;9.40;39.00;;;;;;10480390;28;20347;-77
2024/02/29 22:18:25;;;;;;;20.67;17.57;;;9.30;39.00;;;;;;10483786;28;20223;-75
2024/02/29 22:23:30;;;;;;;21.20;17.33;;;9.20;39.20;;;;;;10479360;28;20231;-77
2024/02/29 22:28:33;;;;;;;17.50;15.60;;;9.20;39.30;;;;;;10482832;28;20253;-77
2024/02/29 22:33:36;;;;;;;21.73;18.13;;;9.10;39.40;;;;;;10482519;28;20235;-77
2024/02/29 22:38:41;;;;;;;18.70;16.17;;;9.10;39.30;;;;;;10475197;28;20247;-77
2024/02/29 22:43:44;;;;;;;19.70;16.27;;;9.00;39.10;;;;;;10477267;28;20646;-77
2024/02/29 22:48:47;;;;;;;24.50;19.27;;;8.90;39.30;;;;;;10475106;28;20716;-77
2024/02/29 22:53:52;;;;;;;23.60;18.10;;;8.80;40.00;;;;;;10488438;28;20321;-75
2024/02/29 22:58:55;;;;;;;28.17;19.43;;;8.80;39.30;;;;;;10477537;28;20427;-77
2024/02/29 23:03:59;;;;;;;18.53;16.63;;;8.80;39.30;;;;;;10489241;28;20260;-77
2024/02/29 23:09:04;;;;;;;18.37;16.37;;;8.60;39.10;;;;;;10481325;28;20287;-75
2024/02/29 23:14:07;;;;;;;19.73;17.67;;;8.50;39.60;;;;;;10484827;28;20254;-76
2024/02/29 23:19:11;;;;;;;18.40;15.40;;;8.40;39.60;;;;;;10477152;28;20691;-76
2024/02/29 23:24:15;;;;;;;19.57;17.47;;;8.40;39.60;;;;;;10481541;28;20633;-75
2024/02/29 23:29:19;;;;;;;21.27;19.03;;;8.30;39.50;;;;;;10474935;28;20295;-75
2024/02/29 23:34:22;;;;;;;21.80;19.33;;;8.10;39.30;;;;;;10474346;28;20609;-77
2024/02/29 23:39:26;;;;;;;20.70;18.50;;;8.10;39.30;;;;;;10474004;28;20745;-75
2024/02/29 23:44:30;;;;;;;19.80;17.67;;;8.00;40.00;;;;;;10480013;28;20232;-75
2024/02/29 23:49:33;;;;;;;19.30;17.17;;;8.00;39.30;;;;;;10479070;28;20715;-75
2024/02/29 23:54:39;;;;;;;19.90;17.10;;;7.90;39.20;;;;;;10484038;28;20220;-77
2024/02/29 23:59:42;;;;;;;17.50;15.40;;;7.90;39.20;;;;;;10482077;28;20234;-78
